Listonburg, Pennsylvania
Current Conditions -  °F | °C
As of 5:05 PM on Monday 20 Oct 2014 (Local Time) from K2G4 Reporting Station
Overcast Overcast  
Wind Chill: 50°   Ceiling: 6500
Heat Index: 50°   Visibility: 10mi
Dew Point: 32°   Wind: 8mph
Humidity: 50%   Direction: 210°SSW
Pressure: 29.93"   Gusts: NA
Location:  39.8563°N, 79.3628°W
Report Text: K2G4 202105Z AUTO 21007KT 10SM SCT050 BKN065 OVC120 10/00 A2993 RMK AO1
Loading
Personal Weather Stations






























Interactive Weather Map
Tropical Storm Tracking
New forecast layout! Learn more

10-Day Weather Forecast

Advertisements
Track Severe Weather on mobile